createdAt,value
2023-01-17T00:00:34.919Z,10.37
2023-01-17T00:03:01.602Z,9.63
2023-01-17T00:05:46.949Z,9.77
2023-01-17T00:08:31.950Z,9.80
2023-01-17T00:10:58.765Z,9.53
2023-01-17T00:13:25.379Z,9.70
2023-01-17T00:15:52.386Z,9.77
2023-01-17T00:18:19.098Z,9.37
2023-01-17T00:21:04.043Z,9.53
2023-01-17T00:23:49.153Z,9.77
2023-01-17T00:26:17.984Z,9.87
2023-01-17T00:28:45.743Z,10.10
2023-01-17T00:31:13.864Z,11.70
2023-01-17T00:33:40.524Z,10.43
2023-01-17T00:36:08.004Z,9.53
2023-01-17T00:38:36.963Z,9.20
2023-01-17T00:41:06.034Z,8.33
2023-01-17T00:43:51.469Z,8.27
2023-01-17T00:46:37.355Z,8.40
2023-01-17T00:49:22.997Z,8.10
2023-01-17T00:52:08.172Z,7.80
2023-01-17T00:54:53.360Z,7.60
2023-01-17T00:57:38.369Z,7.50
2023-01-17T01:00:24.135Z,7.77
2023-01-17T01:03:09.182Z,7.20
2023-01-17T01:05:56.037Z,7.67
2023-01-17T01:08:45.448Z,7.07
2023-01-17T01:11:32.734Z,7.67
2023-01-17T01:14:18.525Z,7.53
2023-01-17T01:17:03.935Z,7.50
2023-01-17T01:19:49.268Z,6.27
2023-01-17T01:22:34.253Z,7.07
2023-01-17T01:25:19.297Z,6.90
2023-01-17T01:28:04.461Z,6.97
2023-01-17T01:30:49.560Z,7.30
2023-01-17T01:33:19.090Z,7.27
2023-01-17T01:35:55.635Z,7.30
2023-01-17T01:38:24.076Z,7.10
2023-01-17T01:40:53.182Z,7.20
2023-01-17T01:43:41.460Z,7.60
2023-01-17T01:46:10.683Z,7.47
2023-01-17T01:48:51.729Z,7.43
2023-01-17T01:51:24.067Z,7.67
2023-01-17T01:53:54.774Z,7.67
2023-01-17T01:56:23.524Z,7.23
2023-01-17T01:58:51.501Z,7.67
2023-01-17T02:01:18.511Z,7.23
2023-01-17T02:03:45.927Z,6.90
2023-01-17T02:06:28.435Z,7.13
2023-01-17T02:08:57.509Z,7.60
2023-01-17T02:11:24.202Z,7.03
2023-01-17T02:13:50.796Z,7.30
2023-01-17T02:16:32.130Z,7.27
2023-01-17T02:19:13.999Z,6.40
2023-01-17T02:21:55.474Z,6.63
2023-01-17T02:24:33.981Z,6.53
2023-01-17T02:27:25.604Z,6.57
2023-01-17T02:30:33.726Z,6.97
2023-01-17T02:33:15.170Z,6.40
2023-01-17T02:35:54.852Z,6.10
2023-01-17T02:38:46.032Z,6.70
2023-01-17T02:41:19.821Z,6.57
2023-01-17T02:43:49.663Z,6.80
2023-01-17T02:46:16.510Z,6.20
2023-01-17T02:48:43.247Z,6.37
2023-01-17T02:51:39.042Z,7.07
2023-01-17T02:54:30.290Z,6.30
2023-01-17T02:57:06.622Z,5.77
2023-01-17T02:59:40.587Z,6.07
2023-01-17T03:02:28.281Z,6.03
2023-01-17T03:05:00.847Z,5.30
2023-01-17T03:07:28.292Z,5.90
2023-01-17T03:10:01.738Z,5.53
2023-01-17T03:12:30.113Z,5.57
2023-01-17T03:14:57.065Z,5.50
2023-01-17T03:17:30.349Z,6.10
2023-01-17T03:19:56.963Z,5.90
2023-01-17T03:22:23.712Z,6.07
2023-01-17T03:24:50.571Z,6.07
2023-01-17T03:27:17.115Z,5.97
2023-01-17T03:29:43.737Z,6.07
2023-01-17T03:32:10.395Z,6.20
2023-01-17T03:34:36.949Z,5.67
2023-01-17T03:37:03.555Z,5.77
2023-01-17T03:39:30.137Z,6.23
2023-01-17T03:41:56.733Z,7.27
2023-01-17T03:44:23.399Z,6.73
2023-01-17T03:46:49.963Z,6.23
2023-01-17T03:49:16.785Z,7.10
2023-01-17T03:51:43.361Z,6.97
2023-01-17T03:54:10.011Z,6.57
2023-01-17T03:56:36.579Z,6.47
2023-01-17T03:59:03.214Z,5.80
2023-01-17T04:01:29.873Z,6.03
2023-01-17T04:03:56.495Z,6.30
2023-01-17T04:06:23.069Z,6.47
2023-01-17T04:08:49.637Z,6.27
2023-01-17T04:11:16.228Z,6.23
2023-01-17T04:13:42.832Z,7.13
2023-01-17T04:16:14.488Z,6.47
2023-01-17T04:18:41.292Z,6.43
2023-01-17T04:21:08.227Z,6.20
2023-01-17T04:23:35.093Z,6.50
2023-01-17T04:26:03.533Z,6.77
2023-01-17T04:28:30.211Z,6.67
2023-01-17T04:31:00.388Z,6.50
2023-01-17T04:33:27.085Z,6.40
2023-01-17T04:35:54.302Z,7.03
2023-01-17T04:38:21.543Z,7.10
2023-01-17T04:40:48.658Z,7.70
2023-01-17T04:43:16.268Z,7.97
2023-01-17T04:45:43.537Z,6.97
2023-01-17T04:48:12.633Z,6.93
2023-01-17T04:50:39.710Z,7.20
2023-01-17T04:53:06.323Z,7.10
2023-01-17T04:55:32.953Z,6.70
2023-01-17T04:57:59.524Z,6.93
2023-01-17T05:00:26.118Z,6.63
2023-01-17T05:02:53.047Z,6.80
2023-01-17T05:05:19.648Z,7.00
2023-01-17T05:07:53.485Z,7.40
2023-01-17T05:10:20.062Z,7.40
2023-01-17T05:12:54.070Z,6.70
2023-01-17T05:15:20.694Z,9.30
2023-01-17T05:17:47.317Z,10.07
2023-01-17T05:20:13.980Z,9.03
2023-01-17T05:22:40.526Z,11.37
2023-01-17T05:25:07.526Z,11.57
2023-01-17T05:27:34.181Z,10.93
2023-01-17T05:30:00.735Z,11.23
2023-01-17T05:32:27.309Z,9.77
2023-01-17T05:34:54.007Z,9.10
2023-01-17T05:37:20.779Z,8.40
2023-01-17T05:39:47.614Z,8.57
2023-01-17T05:42:14.169Z,8.80
2023-01-17T05:44:40.733Z,8.57
2023-01-17T05:47:07.281Z,9.17
2023-01-17T05:49:34.270Z,8.93
2023-01-17T05:52:00.930Z,8.73
2023-01-17T05:54:27.461Z,9.67
2023-01-17T05:56:54.021Z,8.67
2023-01-17T05:59:32.262Z,9.47
2023-01-17T06:02:02.817Z,9.53
2023-01-17T06:04:29.443Z,9.53
2023-01-17T06:06:56.017Z,10.00
2023-01-17T06:09:22.558Z,9.80
2023-01-17T06:11:49.162Z,9.93
2023-01-17T06:14:15.691Z,10.57
2023-01-17T06:16:42.322Z,10.20
2023-01-17T06:19:09.485Z,10.47
2023-01-17T06:21:36.073Z,10.63
2023-01-17T06:24:04.235Z,10.47
2023-01-17T06:26:30.925Z,11.03
2023-01-17T06:28:57.535Z,10.97
2023-01-17T06:31:24.171Z,10.57
2023-01-17T06:33:50.723Z,10.53
2023-01-17T06:36:17.264Z,10.60
2023-01-17T06:38:43.825Z,11.17
2023-01-17T06:41:10.375Z,11.90
2023-01-17T06:43:36.909Z,11.33
2023-01-17T06:46:03.586Z,10.97
2023-01-17T06:48:30.144Z,12.70
2023-01-17T06:50:57.894Z,16.93
2023-01-17T06:53:24.636Z,16.20
2023-01-17T06:55:52.664Z,13.67
2023-01-17T06:58:19.303Z,13.07
2023-01-17T07:00:45.948Z,12.47
2023-01-17T07:03:18.921Z,11.43
2023-01-17T07:05:45.559Z,11.97
2023-01-17T07:08:12.135Z,12.40
2023-01-17T07:10:38.720Z,11.10
2023-01-17T07:13:05.314Z,11.03
2023-01-17T07:15:31.909Z,11.10
2023-01-17T07:18:01.238Z,13.20
2023-01-17T07:20:28.698Z,12.67
2023-01-17T07:22:55.317Z,11.97
2023-01-17T07:25:21.908Z,11.33
2023-01-17T07:27:48.567Z,11.00
2023-01-17T07:30:15.326Z,11.20
2023-01-17T07:32:41.887Z,10.80
2023-01-17T07:35:08.842Z,11.00
2023-01-17T07:37:35.382Z,10.93
2023-01-17T07:40:03.025Z,11.00
2023-01-17T07:42:29.648Z,10.57
2023-01-17T07:44:56.208Z,10.80
2023-01-17T07:47:24.749Z,10.67
2023-01-17T07:49:51.322Z,10.23
2023-01-17T07:52:18.361Z,10.13
2023-01-17T07:54:45.006Z,9.90
2023-01-17T07:57:12.598Z,10.10
2023-01-17T07:59:39.140Z,10.23
2023-01-17T08:02:06.049Z,10.63
2023-01-17T08:04:35.188Z,10.00
2023-01-17T08:07:01.943Z,9.87
2023-01-17T08:09:28.684Z,9.87
2023-01-17T08:11:55.257Z,9.70
2023-01-17T08:14:21.794Z,8.97
2023-01-17T08:16:48.331Z,10.47
2023-01-17T08:19:15.245Z,9.73
2023-01-17T08:21:41.823Z,9.53
2023-01-17T08:24:14.711Z,9.97
2023-01-17T08:26:41.392Z,9.87
2023-01-17T08:29:08.245Z,9.80
2023-01-17T08:31:35.400Z,10.03
2023-01-17T08:34:02.374Z,10.53
2023-01-17T08:36:31.128Z,12.47
2023-01-17T08:38:57.827Z,12.30
2023-01-17T08:41:24.889Z,13.63
2023-01-17T08:43:52.103Z,8.73
2023-01-17T08:46:19.387Z,8.50
2023-01-17T08:48:46.493Z,9.07
2023-01-17T08:51:13.506Z,6.10
2023-01-17T08:53:40.712Z,5.67
2023-01-17T08:56:07.714Z,5.47
2023-01-17T08:58:35.829Z,4.23
2023-01-17T09:01:03.615Z,3.90
2023-01-17T09:03:31.527Z,4.00
2023-01-17T09:06:02.703Z,4.50
2023-01-17T09:08:29.319Z,5.80
2023-01-17T09:10:56.076Z,7.17
2023-01-17T09:13:23.592Z,5.13
2023-01-17T09:15:50.223Z,4.90
2023-01-17T09:18:16.916Z,5.20
2023-01-17T09:20:43.484Z,5.63
2023-01-17T09:23:10.057Z,4.83
2023-01-17T09:25:36.587Z,5.07
2023-01-17T09:28:03.185Z,5.40
2023-01-17T09:30:29.781Z,3.73
2023-01-17T09:32:57.330Z,6.10
2023-01-17T09:41:35.812Z,7.40
2023-01-17T09:44:21.867Z,7.43
2023-01-17T09:46:49.052Z,6.50
2023-01-17T09:49:24.660Z,3.93
2023-01-17T09:51:53.457Z,4.43
2023-01-17T09:54:24.286Z,7.63
2023-01-17T09:57:03.151Z,4.30
2023-01-17T10:00:02.868Z,10.60
2023-01-17T10:03:01.015Z,9.20
2023-01-17T10:05:50.451Z,11.87
2023-01-17T10:08:26.391Z,10.23
2023-01-17T10:10:55.954Z,7.90
2023-01-17T10:13:54.132Z,13.97
2023-01-17T10:16:27.191Z,3.37
2023-01-17T10:19:08.977Z,2.10
2023-01-17T10:21:51.350Z,2.00
2023-01-17T10:24:22.458Z,1.40
2023-01-17T10:26:51.368Z,1.90
2023-01-17T10:29:20.908Z,2.87
2023-01-17T10:32:14.287Z,2.13
2023-01-17T10:34:45.453Z,1.80
2023-01-17T10:37:18.330Z,2.30
2023-01-17T10:39:47.743Z,2.40
2023-01-17T10:42:23.442Z,2.07
2023-01-17T10:45:07.151Z,2.10
2023-01-17T10:47:36.944Z,1.40
2023-01-17T10:50:05.344Z,1.10
2023-01-17T10:52:45.257Z,1.10
2023-01-17T10:55:11.874Z,1.17
2023-01-17T10:57:40.989Z,0.90
2023-01-17T11:00:40.094Z,0.80
2023-01-17T11:03:06.870Z,0.67
2023-01-17T11:05:34.118Z,0.70
2023-01-17T11:08:06.748Z,0.77
2023-01-17T11:10:35.576Z,0.60
2023-01-17T11:13:04.835Z,0.60
2023-01-17T11:15:33.768Z,0.70
2023-01-17T11:18:06.395Z,0.50
2023-01-17T11:20:36.381Z,0.70
2023-01-17T11:23:08.189Z,0.60
2023-01-17T11:25:35.185Z,0.67
2023-01-17T11:28:23.663Z,0.60
2023-01-17T11:30:58.633Z,0.70
2023-01-17T11:33:47.896Z,0.60
2023-01-17T11:36:19.962Z,0.60
2023-01-17T11:39:06.618Z,1.10
2023-01-17T11:41:41.154Z,1.00
2023-01-17T11:44:33.880Z,0.80
2023-01-17T11:47:12.685Z,1.43
2023-01-17T11:49:40.661Z,1.47
2023-01-17T11:52:17.099Z,1.60
2023-01-17T11:54:45.777Z,1.30
2023-01-17T11:57:33.402Z,1.30
2023-01-17T12:00:37.996Z,1.10
2023-01-17T12:03:23.850Z,1.50
2023-01-17T12:05:57.952Z,1.30
2023-01-17T12:08:58.694Z,1.70
2023-01-17T12:11:37.178Z,1.40
2023-01-17T12:14:16.607Z,1.63
2023-01-17T12:16:46.332Z,2.10
2023-01-17T12:19:51.586Z,2.23
2023-01-17T12:22:27.760Z,2.30
2023-01-17T12:25:19.233Z,2.03
2023-01-17T12:28:11.337Z,2.43
2023-01-17T12:30:47.386Z,2.90
2023-01-17T12:33:33.314Z,3.53
2023-01-17T12:36:23.223Z,5.43
2023-01-17T12:38:50.082Z,5.27
2023-01-17T12:41:48.220Z,4.80
2023-01-17T12:44:16.413Z,6.50
2023-01-17T12:46:50.799Z,5.10
2023-01-17T12:49:43.231Z,3.93
2023-01-17T12:52:14.702Z,2.43
2023-01-17T12:54:44.276Z,3.33
2023-01-17T12:57:32.069Z,5.27
2023-01-17T13:00:05.718Z,15.80
2023-01-17T13:02:43.861Z,11.93
2023-01-17T13:05:12.624Z,5.93
2023-01-17T13:07:46.643Z,6.60
2023-01-17T13:10:19.381Z,7.80
2023-01-17T13:12:46.875Z,4.67
2023-01-17T13:15:19.619Z,6.00
2023-01-17T13:17:51.945Z,3.50
2023-01-17T13:20:22.716Z,3.67
2023-01-17T13:22:50.032Z,2.17
2023-01-17T13:25:34.825Z,2.00
2023-01-17T13:28:36.473Z,2.20
2023-01-17T13:31:13.696Z,2.40
2023-01-17T13:33:58.931Z,9.00
2023-01-17T13:39:39.489Z,3.23
2023-01-17T13:42:27.959Z,3.63
2023-01-17T13:44:54.651Z,2.53
2023-01-17T13:47:22.999Z,2.60
2023-01-17T13:49:51.539Z,3.00
2023-01-17T13:52:21.164Z,2.83
2023-01-17T13:55:02.610Z,5.90
2023-01-17T13:57:36.068Z,6.37
2023-01-17T14:00:21.313Z,4.90
2023-01-17T14:02:49.525Z,3.00
2023-01-17T14:05:20.487Z,3.60
2023-01-17T14:07:52.490Z,2.70
2023-01-17T14:10:47.743Z,2.57
2023-01-17T14:13:37.174Z,3.40
2023-01-17T14:16:24.025Z,2.80
2023-01-17T14:18:50.721Z,2.63
2023-01-17T14:21:31.585Z,3.30
2023-01-17T14:24:05.236Z,3.00
2023-01-17T14:26:45.417Z,3.27
2023-01-17T14:29:43.943Z,4.00
2023-01-17T14:32:12.947Z,3.70
2023-01-17T14:34:40.155Z,4.10
2023-01-17T14:37:17.903Z,3.70
2023-01-17T14:39:46.555Z,3.47
2023-01-17T14:42:18.638Z,4.13
2023-01-17T14:44:49.771Z,12.40
2023-01-17T14:47:16.939Z,7.53
2023-01-17T14:49:44.114Z,4.80
2023-01-17T14:52:16.482Z,4.97
2023-01-17T14:54:50.774Z,5.20
2023-01-17T14:57:28.461Z,6.03
2023-01-17T15:00:19.861Z,4.20
2023-01-17T15:02:47.980Z,5.20
2023-01-17T15:05:16.149Z,4.33
2023-01-17T15:07:44.167Z,5.80
2023-01-17T15:10:15.891Z,5.50
2023-01-17T15:12:46.639Z,4.77
2023-01-17T15:15:35.390Z,4.80
2023-01-17T15:18:17.247Z,4.83
2023-01-17T15:20:53.596Z,5.10
2023-01-17T15:23:22.292Z,4.70
2023-01-17T15:25:50.803Z,4.70
2023-01-17T15:28:18.064Z,6.13
2023-01-17T15:31:23.724Z,6.80
2023-01-17T15:33:55.269Z,5.30
2023-01-17T15:36:30.036Z,5.77
2023-01-17T15:39:00.254Z,5.67
2023-01-17T15:41:30.869Z,6.60
2023-01-17T15:43:58.728Z,6.50
2023-01-17T15:46:42.321Z,6.40
2023-01-17T15:49:21.890Z,6.00
2023-01-17T15:51:56.608Z,6.47
2023-01-17T15:54:28.996Z,5.33
2023-01-17T15:57:03.008Z,5.90
2023-01-17T15:59:50.998Z,6.10
2023-01-17T16:02:43.342Z,6.67
2023-01-17T16:05:22.695Z,5.30
2023-01-17T16:07:54.735Z,6.27
2023-01-17T16:10:24.792Z,7.95
2023-01-17T16:12:53.917Z,6.10
2023-01-17T16:15:20.725Z,6.87
2023-01-17T16:17:49.378Z,6.47
2023-01-17T16:20:19.782Z,10.90
2023-01-17T16:22:47.159Z,15.17
2023-01-17T16:25:19.136Z,20.43
2023-01-17T16:27:45.902Z,14.77
2023-01-17T16:30:17.296Z,22.63
2023-01-17T16:32:51.483Z,13.67
2023-01-17T16:35:23.997Z,8.40
2023-01-17T16:37:55.792Z,9.07
2023-01-17T16:40:25.407Z,7.33
2023-01-17T16:42:52.001Z,6.13
2023-01-17T16:45:18.894Z,5.63
2023-01-17T16:47:46.929Z,6.03
2023-01-17T16:50:18.993Z,5.73
2023-01-17T16:52:45.730Z,6.73
2023-01-17T16:55:14.866Z,6.10
2023-01-17T16:57:42.082Z,5.60
2023-01-17T17:00:17.825Z,8.10
2023-01-17T17:02:44.632Z,8.27
2023-01-17T17:05:15.088Z,8.93
2023-01-17T17:07:45.460Z,7.77
2023-01-17T17:10:14.081Z,6.70
2023-01-17T17:12:41.126Z,6.20
2023-01-17T17:15:10.770Z,6.43
2023-01-17T17:17:39.325Z,6.67
2023-01-17T17:20:07.248Z,6.90
2023-01-17T17:22:33.944Z,6.30
2023-01-17T17:25:00.664Z,7.23
2023-01-17T17:27:27.871Z,6.87
2023-01-17T17:30:02.278Z,5.60
2023-01-17T17:32:29.843Z,5.90
2023-01-17T17:34:56.421Z,4.40
2023-01-17T17:37:23.559Z,4.60
2023-01-17T17:39:50.107Z,5.10
2023-01-17T17:42:16.717Z,5.27
2023-01-17T17:44:43.309Z,4.07
2023-01-17T17:47:12.791Z,5.50
2023-01-17T17:49:42.092Z,4.50
2023-01-17T17:52:11.751Z,3.93
2023-01-17T17:54:38.519Z,5.10
2023-01-17T17:57:05.118Z,4.97
2023-01-17T17:59:31.891Z,3.20
2023-01-17T18:01:59.734Z,3.50
2023-01-17T18:04:26.483Z,3.80
2023-01-17T18:06:58.333Z,3.30
2023-01-17T18:09:24.995Z,3.40
2023-01-17T18:11:51.697Z,4.30
2023-01-17T18:14:21.032Z,4.73
2023-01-17T18:16:47.896Z,4.63
2023-01-17T18:19:23.081Z,4.40
2023-01-17T18:21:51.322Z,4.17
2023-01-17T18:24:20.437Z,4.40
2023-01-17T18:26:55.985Z,4.07
2023-01-17T18:29:23.840Z,3.33
2023-01-17T18:31:51.394Z,4.13
2023-01-17T18:34:21.277Z,4.00
2023-01-17T18:36:47.859Z,3.40
2023-01-17T18:39:15.744Z,5.07
2023-01-17T18:41:42.773Z,4.87
2023-01-17T18:44:14.376Z,4.60
2023-01-17T18:46:42.094Z,5.43
2023-01-17T18:49:12.595Z,5.27
2023-01-17T18:51:39.262Z,5.10
2023-01-17T18:54:10.421Z,6.67
2023-01-17T18:56:37.040Z,5.10
2023-01-17T18:59:08.965Z,7.37
2023-01-17T19:01:36.364Z,3.80
2023-01-17T19:04:07.413Z,4.57
2023-01-17T19:06:39.698Z,3.67
2023-01-17T19:09:08.139Z,3.30
2023-01-17T19:11:35.879Z,7.27
2023-01-17T19:14:02.925Z,9.40
2023-01-17T19:16:31.808Z,4.87
2023-01-17T19:19:02.669Z,4.40
2023-01-17T19:21:31.249Z,4.03
2023-01-17T19:23:58.713Z,3.50
2023-01-17T19:26:28.506Z,3.50
2023-01-17T19:28:56.644Z,2.80
2023-01-17T19:31:25.881Z,2.93
2023-01-17T19:33:56.560Z,2.83
2023-01-17T19:36:25.629Z,4.33
2023-01-17T19:39:03.934Z,5.33
2023-01-17T19:41:32.913Z,10.20
2023-01-17T19:44:03.689Z,6.73
2023-01-17T19:46:30.623Z,6.30
2023-01-17T19:48:57.583Z,3.83
2023-01-17T19:51:25.244Z,5.10
2023-01-17T19:53:53.539Z,5.47
2023-01-17T19:56:22.657Z,5.63
2023-01-17T19:58:50.731Z,4.50
2023-01-17T20:01:23.944Z,8.50
2023-01-17T20:03:57.608Z,8.17
2023-01-17T20:06:27.101Z,6.53
2023-01-17T20:08:53.655Z,4.53
2023-01-17T20:11:22.969Z,4.50
2023-01-17T20:14:01.359Z,10.97
2023-01-17T20:16:32.689Z,7.33
2023-01-17T20:19:00.209Z,8.60
2023-01-17T20:21:29.431Z,11.00
2023-01-17T20:24:02.448Z,13.00
2023-01-17T20:26:34.861Z,6.63
2023-01-17T20:29:10.892Z,5.70
2023-01-17T20:31:39.108Z,7.93
2023-01-17T20:34:07.127Z,7.43
2023-01-17T20:36:35.235Z,4.87
2023-01-17T20:39:06.637Z,5.70
2023-01-17T20:41:35.669Z,6.63
2023-01-17T20:44:04.198Z,6.73
2023-01-17T20:46:35.537Z,5.00
2023-01-17T20:49:07.633Z,8.83
2023-01-17T20:51:34.629Z,8.00
2023-01-17T20:54:03.567Z,9.33
2023-01-17T20:56:34.462Z,5.70
2023-01-17T20:59:03.917Z,6.47
2023-01-17T21:01:30.691Z,5.33
2023-01-17T21:03:59.751Z,6.83
2023-01-17T21:06:26.428Z,7.90
2023-01-17T21:08:53.329Z,5.50
2023-01-17T21:11:23.587Z,8.40
2023-01-17T21:13:51.290Z,6.33
2023-01-17T21:16:21.174Z,9.00
2023-01-17T21:18:48.650Z,8.93
2023-01-17T21:21:20.169Z,9.03
2023-01-17T21:23:46.768Z,5.67
2023-01-17T21:26:18.265Z,6.90
2023-01-17T21:28:45.979Z,5.83
2023-01-17T21:31:23.370Z,6.13
2023-01-17T21:33:55.669Z,11.00
2023-01-17T21:36:26.825Z,8.10
2023-01-17T21:38:57.003Z,4.87
2023-01-17T21:41:28.491Z,5.60
2023-01-17T21:43:58.791Z,5.67
2023-01-17T21:46:27.697Z,4.10
2023-01-17T21:48:54.408Z,9.33
2023-01-17T21:51:21.815Z,4.00
2023-01-17T21:53:50.664Z,3.70
2023-01-17T21:56:35.765Z,3.13
2023-01-17T21:59:04.798Z,3.10
2023-01-17T22:04:14.185Z,3.97
2023-01-17T22:06:43.406Z,3.13
2023-01-17T22:09:10.053Z,3.60
2023-01-17T22:11:38.961Z,3.80
2023-01-17T22:14:05.933Z,2.93
2023-01-17T22:16:32.511Z,3.67
2023-01-17T22:19:02.710Z,3.60
2023-01-17T22:21:29.343Z,3.13
2023-01-17T22:23:58.280Z,3.27
2023-01-17T22:26:29.684Z,3.17
2023-01-17T22:29:02.612Z,3.47
2023-01-17T22:31:31.405Z,3.60
2023-01-17T22:34:01.022Z,3.40
2023-01-17T22:36:28.057Z,4.03
2023-01-17T22:38:54.691Z,3.70
2023-01-17T22:41:25.551Z,3.80
2023-01-17T22:43:53.703Z,4.27
2023-01-17T22:46:28.111Z,4.33
2023-01-17T22:48:57.116Z,3.97
2023-01-17T22:51:25.487Z,3.87
2023-01-17T22:53:54.379Z,4.57
2023-01-17T22:56:23.519Z,4.30
2023-01-17T22:58:50.760Z,4.80
2023-01-17T23:01:17.630Z,4.50
2023-01-17T23:03:47.597Z,4.57
2023-01-17T23:06:16.397Z,3.87
2023-01-17T23:08:45.624Z,3.07
2023-01-17T23:11:41.869Z,3.10
2023-01-17T23:14:09.702Z,2.90
2023-01-17T23:16:56.525Z,2.83
2023-01-17T23:19:23.678Z,2.90
2023-01-17T23:22:10.709Z,2.90
2023-01-17T23:24:43.036Z,2.90
2023-01-17T23:27:35.392Z,2.57
2023-01-17T23:30:05.092Z,2.73
2023-01-17T23:32:31.743Z,3.53
2023-01-17T23:34:58.325Z,4.00
2023-01-17T23:37:52.130Z,4.10
2023-01-17T23:40:19.278Z,4.17
2023-01-17T23:43:05.044Z,4.00
2023-01-17T23:45:37.368Z,3.90
2023-01-17T23:48:05.727Z,4.20
2023-01-17T23:50:33.127Z,3.77
2023-01-17T23:53:00.151Z,3.70
2023-01-17T23:55:28.016Z,3.60
2023-01-17T23:57:55.010Z,3.90
